Time;durP1;ratioP1;P1;durP2;ratioP2;P2;SDS_P1;SDS_P2;PMS_P1;PMS_P2;Temp;Humidity;BMP_temperature;BMP_pressure;BME280_temperature;BME280_humidity;BME280_pressure;Samples;Min_cycle;Max_cycle;Signal;HPM_P1;HPM_P2
2022/01/04 00:02:05;;;;;;;33.58;8.55;;;8.10;99.90;;;;;;4999446;28;20046;-69
2022/01/04 00:04:31;;;;;;;29.30;8.20;;;8.10;99.90;;;;;;5015894;28;20045;-69
2022/01/04 00:06:58;;;;;;;30.77;8.27;;;8.10;99.90;;;;;;4999105;28;20050;-68
2022/01/04 00:09:23;;;;;;;27.73;8.13;;;8.10;99.90;;;;;;4999083;28;20057;-69
2022/01/04 00:14:17;;;;;;;30.85;7.82;;;8.10;99.90;;;;;;5016647;28;20049;-68
2022/01/04 00:16:43;;;;;;;28.45;7.97;;;8.10;99.90;;;;;;4999515;28;20065;-69
2022/01/04 00:19:09;;;;;;;27.77;7.43;;;8.10;99.90;;;;;;4998970;28;20049;-68
2022/01/04 00:21:35;;;;;;;33.72;7.25;;;8.20;99.90;;;;;;5015974;28;20049;-69
2022/01/04 00:24:01;;;;;;;24.10;7.47;;;8.20;99.90;;;;;;5016179;28;20053;-68
2022/01/04 00:26:27;;;;;;;27.17;7.03;;;8.20;99.90;;;;;;5015609;28;20060;-68
2022/01/04 00:28:53;;;;;;;28.73;9.70;;;8.20;99.90;;;;;;4999156;28;20053;-68
2022/01/04 00:31:18;;;;;;;28.85;10.43;;;8.20;99.90;;;;;;5015873;28;20111;-67
2022/01/04 00:33:44;;;;;;;34.03;8.35;;;8.20;99.90;;;;;;4998234;28;20049;-70
2022/01/04 00:36:10;;;;;;;29.33;7.28;;;8.20;99.90;;;;;;5015786;28;20042;-67
2022/01/04 00:38:35;;;;;;;24.88;6.53;;;8.20;99.90;;;;;;4998508;28;20057;-69
2022/01/04 00:41:01;;;;;;;24.13;6.43;;;8.10;99.90;;;;;;5015547;28;20037;-69
2022/01/04 00:43:27;;;;;;;26.27;6.30;;;8.10;99.90;;;;;;5015594;28;20045;-68
2022/01/04 00:45:53;;;;;;;27.88;6.07;;;8.00;99.90;;;;;;5015778;28;20426;-69
2022/01/04 00:50:45;;;;;;;29.63;6.57;;;8.00;99.90;;;;;;4998867;28;20530;-69
2022/01/04 00:53:11;;;;;;;26.08;6.13;;;7.90;99.90;;;;;;5015511;28;20125;-69
2022/01/04 00:55:37;;;;;;;28.15;6.22;;;7.90;99.90;;;;;;5015360;28;20061;-68
2022/01/04 00:58:04;;;;;;;27.92;6.40;;;7.90;99.90;;;;;;4998975;28;20045;-69
2022/01/04 01:00:31;;;;;;;27.38;7.13;;;7.90;99.90;;;;;;5015485;28;20046;-68
2022/01/04 01:02:56;;;;;;;30.48;7.40;;;7.90;99.90;;;;;;5015448;28;20053;-68
2022/01/04 01:05:25;;;;;;;29.35;6.88;;;7.90;99.90;;;;;;4997672;28;20046;-69
2022/01/04 01:07:51;;;;;;;26.90;6.85;;;7.90;99.90;;;;;;4998064;28;20088;-68
2022/01/04 01:10:39;;;;;;;24.45;7.28;;;7.90;99.90;;;;;;5015220;28;20049;-68
2022/01/04 01:13:05;;;;;;;23.42;7.28;;;7.90;99.90;;;;;;4997769;28;20049;-69
2022/01/04 01:15:31;;;;;;;29.25;7.40;;;7.90;99.90;;;;;;5014689;28;20466;-69
2022/01/04 01:17:56;;;;;;;31.65;8.00;;;7.80;99.90;;;;;;5015139;28;20046;-68
2022/01/04 01:20:22;;;;;;;34.80;8.40;;;7.80;99.90;;;;;;4997287;28;20139;-68
2022/01/04 01:22:48;;;;;;;33.60;8.50;;;7.90;99.90;;;;;;5015060;28;20060;-69
2022/01/04 01:25:14;;;;;;;27.67;8.27;;;7.90;99.90;;;;;;4998195;28;20343;-69
2022/01/04 01:27:41;;;;;;;30.70;8.43;;;7.80;99.90;;;;;;4998009;28;20060;-69
2022/01/04 01:30:07;;;;;;;27.45;8.40;;;7.90;99.90;;;;;;5015291;28;20049;-69
2022/01/04 01:32:33;;;;;;;39.05;9.55;;;7.90;99.90;;;;;;4981762;28;20064;-69
2022/01/04 01:34:59;;;;;;;29.65;8.68;;;7.90;99.90;;;;;;5014538;28;20440;-69
2022/01/04 01:37:24;;;;;;;28.67;8.73;;;7.90;99.90;;;;;;4997822;28;20125;-69
2022/01/04 01:39:50;;;;;;;39.40;8.48;;;8.00;99.90;;;;;;4998174;28;20042;-69
2022/01/04 01:42:16;;;;;;;27.52;8.60;;;8.00;99.90;;;;;;5015218;28;20189;-68
2022/01/04 01:44:42;;;;;;;37.53;8.45;;;8.00;99.90;;;;;;4997521;28;20046;-68
2022/01/04 01:47:08;;;;;;;37.80;8.85;;;8.10;99.90;;;;;;4997697;28;20061;-70
2022/01/04 01:49:34;;;;;;;27.83;8.80;;;8.10;99.90;;;;;;4997632;28;20046;-70
2022/01/04 01:52:00;;;;;;;32.58;9.32;;;8.10;99.90;;;;;;5014844;28;20515;-67
2022/01/04 01:54:26;;;;;;;36.38;8.82;;;8.10;99.90;;;;;;5014769;28;20095;-69
2022/01/04 01:56:52;;;;;;;32.67;9.00;;;8.10;99.90;;;;;;5015028;28;20093;-68
2022/01/04 01:59:18;;;;;;;29.05;8.63;;;8.00;99.90;;;;;;5015019;28;20057;-69
2022/01/04 02:01:44;;;;;;;43.83;9.15;;;8.00;99.90;;;;;;5015077;28;20045;-69
2022/01/04 02:04:09;;;;;;;28.77;9.45;;;8.10;99.90;;;;;;5014379;28;20466;-69
2022/01/04 02:06:35;;;;;;;28.73;8.73;;;8.00;99.90;;;;;;5014618;28;20046;-70
2022/01/04 02:09:03;;;;;;;30.42;9.25;;;8.00;99.90;;;;;;4997624;28;20435;-69
2022/01/04 02:11:29;;;;;;;25.63;7.93;;;8.00;99.90;;;;;;5014803;28;20038;-69
2022/01/04 02:14:02;;;;;;;41.97;9.50;;;7.90;99.90;;;;;;4997623;28;20049;-69
2022/01/04 02:16:29;;;;;;;;;;;7.90;99.90;;;;;;4998065;28;20049;-70
2022/01/04 02:19:02;;;;;;;42.83;9.10;;;7.90;99.90;;;;;;4997399;28;19931;-70
2022/01/04 02:21:28;;;;;;;;;;;7.90;99.90;;;;;;4997738;28;20343;-71
2022/01/04 02:23:53;;;;;;;31.15;8.27;;;7.90;99.90;;;;;;5014941;28;19928;-69
2022/01/04 02:26:19;;;;;;;28.58;8.20;;;8.00;99.90;;;;;;5014686;28;20053;-68
2022/01/04 02:28:46;;;;;;;40.80;8.90;;;7.90;99.90;;;;;;5017240;28;20121;-69
2022/01/04 02:31:11;;;;;;;29.42;9.00;;;7.80;99.90;;;;;;5017889;28;20042;-70
2022/01/04 02:33:37;;;;;;;34.80;8.63;;;7.90;99.90;;;;;;5018114;28;20472;-68
2022/01/04 02:36:03;;;;;;;28.20;8.52;;;7.90;99.90;;;;;;5018047;28;20057;-68
2022/01/04 02:38:28;;;;;;;34.28;8.93;;;7.90;99.90;;;;;;5018128;28;20358;-68
2022/01/04 02:40:54;;;;;;;36.70;9.25;;;7.90;99.90;;;;;;5018132;28;20076;-68
2022/01/04 02:43:20;;;;;;;37.15;9.98;;;7.90;99.90;;;;;;5018071;28;20057;-68
2022/01/04 02:45:45;;;;;;;33.17;10.13;;;8.00;99.90;;;;;;5017734;28;20050;-71
2022/01/04 02:48:11;;;;;;;39.50;10.02;;;8.00;99.90;;;;;;5000678;28;20046;-69
2022/01/04 02:50:36;;;;;;;35.92;10.07;;;7.90;99.90;;;;;;5018137;28;20048;-70
2022/01/04 02:53:02;;;;;;;30.40;10.43;;;7.90;99.90;;;;;;5017760;28;20136;-68
2022/01/04 02:55:27;;;;;;;39.58;11.05;;;7.90;99.90;;;;;;5017631;28;20126;-67
2022/01/04 02:57:53;;;;;;;37.10;11.52;;;8.00;99.90;;;;;;5017479;28;20046;-68
2022/01/04 03:00:19;;;;;;;30.73;11.35;;;7.90;99.90;;;;;;5017689;28;20053;-70
2022/01/04 03:02:45;;;;;;;37.75;11.88;;;8.00;99.90;;;;;;5017543;28;20049;-68
2022/01/04 03:05:11;;;;;;;32.08;11.15;;;8.00;99.90;;;;;;5017056;28;20045;-69
2022/01/04 03:07:38;;;;;;;32.75;12.02;;;8.00;99.90;;;;;;5017465;28;20068;-69
2022/01/04 03:10:05;;;;;;;32.00;11.25;;;8.00;99.90;;;;;;5017569;28;20053;-69
2022/01/04 03:12:30;;;;;;;29.98;11.98;;;8.00;99.90;;;;;;5000167;28;20046;-69
2022/01/04 03:14:56;;;;;;;36.05;11.63;;;8.00;99.90;;;;;;5000247;28;20052;-69
2022/01/04 03:17:22;;;;;;;31.48;11.32;;;7.90;99.90;;;;;;4999780;28;20115;-69
2022/01/04 03:19:47;;;;;;;27.48;10.90;;;7.90;99.90;;;;;;5016984;28;20054;-68
2022/01/04 03:22:13;;;;;;;45.75;12.07;;;7.90;99.90;;;;;;5017477;28;20046;-69
2022/01/04 03:24:39;;;;;;;36.67;11.25;;;7.80;99.90;;;;;;5017074;28;20056;-68
2022/01/04 03:27:04;;;;;;;35.05;11.90;;;7.80;99.90;;;;;;5017044;28;20038;-70
2022/01/04 03:29:30;;;;;;;40.78;11.82;;;7.80;99.90;;;;;;5017178;28;20057;-69
2022/01/04 03:31:57;;;;;;;34.38;11.93;;;7.80;99.90;;;;;;5015818;28;20366;-67
2022/01/04 03:34:23;;;;;;;37.70;12.43;;;7.80;99.90;;;;;;5017091;28;20388;-69
2022/01/04 03:36:49;;;;;;;37.88;12.75;;;7.80;99.90;;;;;;5016901;28;20084;-70
2022/01/04 03:39:14;;;;;;;38.13;12.85;;;7.70;99.90;;;;;;5016212;28;20081;-68
2022/01/04 03:41:44;;;;;;;41.60;12.80;;;7.70;99.90;;;;;;4999961;28;20080;-68
2022/01/04 03:44:16;;;;;;;35.03;11.68;;;7.80;99.90;;;;;;5016683;28;20048;-71
2022/01/04 03:46:42;;;;;;;49.28;13.93;;;7.80;99.90;;;;;;5017064;28;20042;-69
2022/01/04 03:49:08;;;;;;;49.83;13.68;;;7.80;99.90;;;;;;5016660;28;20129;-69
2022/01/04 03:51:33;;;;;;;37.10;12.00;;;7.80;99.90;;;;;;5016781;28;20046;-68
2022/01/04 03:53:59;;;;;;;39.05;13.25;;;7.80;99.90;;;;;;4999474;28;20180;-68
2022/01/04 03:56:25;;;;;;;34.03;12.68;;;7.80;99.90;;;;;;5016718;28;20394;-68
2022/01/04 03:58:50;;;;;;;37.25;12.57;;;7.90;99.90;;;;;;5015828;28;20057;-68
2022/01/04 04:01:16;;;;;;;35.90;13.25;;;7.90;99.90;;;;;;5016349;28;20050;-69
2022/01/04 04:03:41;;;;;;;33.38;13.13;;;7.90;99.90;;;;;;4999224;28;20120;-68
2022/01/04 04:06:07;;;;;;;38.22;13.35;;;7.90;99.90;;;;;;5016381;28;20057;-68
2022/01/04 04:08:33;;;;;;;40.15;14.32;;;7.90;99.90;;;;;;5016369;28;20049;-70
2022/01/04 04:10:58;;;;;;;38.67;14.88;;;8.00;99.90;;;;;;5016393;28;20446;-68
2022/01/04 04:13:24;;;;;;;30.80;13.60;;;8.00;99.90;;;;;;4999075;28;20061;-68
2022/01/04 04:15:50;;;;;;;42.95;14.02;;;8.00;99.90;;;;;;5016254;28;20424;-68
2022/01/04 04:18:17;;;;;;;35.90;13.88;;;8.00;99.90;;;;;;5015836;28;20053;-68
2022/01/04 04:20:43;;;;;;;38.88;14.65;;;8.00;99.90;;;;;;5016136;28;20054;-71
2022/01/04 04:23:10;;;;;;;37.60;14.38;;;8.00;99.90;;;;;;4999398;28;20434;-68
2022/01/04 04:25:35;;;;;;;39.38;13.38;;;8.00;99.90;;;;;;4998949;28;20485;-69
2022/01/04 04:28:01;;;;;;;47.90;13.65;;;8.00;99.90;;;;;;5015524;28;20124;-70
2022/01/04 04:30:27;;;;;;;34.00;14.43;;;8.00;99.90;;;;;;4998863;28;20045;-68
2022/01/04 04:32:52;;;;;;;40.75;13.02;;;8.00;99.90;;;;;;5016472;28;20061;-68
2022/01/04 04:35:18;;;;;;;43.08;14.75;;;8.00;99.90;;;;;;4999185;28;20050;-68
2022/01/04 04:37:44;;;;;;;32.53;14.18;;;8.00;99.90;;;;;;4998709;28;20088;-69
2022/01/04 04:40:10;;;;;;;39.58;14.48;;;8.00;99.90;;;;;;4998588;28;20053;-68
2022/01/04 04:42:37;;;;;;;38.92;13.40;;;8.00;99.90;;;;;;5015200;28;20588;-68
2022/01/04 04:45:04;;;;;;;38.85;14.65;;;8.00;99.90;;;;;;5015691;28;20050;-68
2022/01/04 04:47:30;;;;;;;45.83;16.30;;;8.00;99.90;;;;;;5015928;28;20489;-70
2022/01/04 04:49:55;;;;;;;36.42;14.82;;;8.00;99.90;;;;;;5015567;28;20089;-70
2022/01/04 04:52:21;;;;;;;52.05;14.90;;;8.00;99.90;;;;;;5015247;28;20100;-68
2022/01/04 04:54:47;;;;;;;41.28;14.50;;;8.00;99.90;;;;;;5015710;28;20076;-69
2022/01/04 04:57:13;;;;;;;40.83;15.10;;;8.10;99.90;;;;;;5015535;28;20052;-68
2022/01/04 04:59:39;;;;;;;45.05;16.00;;;8.10;99.90;;;;;;5015309;28;20112;-69
2022/01/04 05:02:07;;;;;;;43.10;15.73;;;8.10;99.90;;;;;;5015360;28;20046;-69
2022/01/04 05:04:33;;;;;;;43.40;15.80;;;8.10;99.90;;;;;;4998094;28;20065;-69
2022/01/04 05:06:59;;;;;;;43.60;15.75;;;8.10;99.90;;;;;;4998272;28;20057;-67
2022/01/04 05:09:24;;;;;;;47.58;14.80;;;8.10;99.90;;;;;;5015615;28;20042;-69
2022/01/04 05:11:50;;;;;;;44.60;15.73;;;8.10;99.90;;;;;;4998628;28;20413;-68
2022/01/04 05:14:15;;;;;;;46.65;15.35;;;8.10;99.90;;;;;;5014077;28;20409;-70
2022/01/04 05:16:41;;;;;;;52.03;15.48;;;8.10;99.90;;;;;;5015034;28;20042;-68
2022/01/04 05:19:07;;;;;;;35.75;14.85;;;8.10;99.90;;;;;;5015116;28;20042;-70
2022/01/04 05:21:32;;;;;;;45.83;16.10;;;8.10;99.90;;;;;;4997744;28;20097;-69
2022/01/04 05:23:58;;;;;;;45.92;16.05;;;8.10;99.90;;;;;;5014934;28;20054;-69
2022/01/04 05:26:23;;;;;;;41.58;15.23;;;8.10;99.90;;;;;;4997448;28;20128;-68
2022/01/04 05:28:49;;;;;;;35.40;15.95;;;8.10;99.90;;;;;;5015149;28;20042;-67
2022/01/04 05:31:14;;;;;;;39.05;15.45;;;8.10;99.90;;;;;;5015316;28;20508;-69
2022/01/04 05:33:41;;;;;;;43.63;16.48;;;8.10;99.90;;;;;;5014657;28;20442;-68
2022/01/04 05:36:06;;;;;;;42.42;15.43;;;8.10;99.90;;;;;;4998204;28;20045;-68
2022/01/04 05:38:32;;;;;;;37.47;14.45;;;8.10;99.90;;;;;;4997744;28;20351;-68
2022/01/04 05:40:58;;;;;;;42.17;16.45;;;8.10;99.90;;;;;;4997810;28;20077;-68
2022/01/04 05:43:24;;;;;;;35.83;14.77;;;8.10;99.90;;;;;;5014911;28;20085;-70
2022/01/04 05:45:50;;;;;;;37.63;15.35;;;8.10;99.90;;;;;;5014885;28;20116;-68
2022/01/04 05:48:18;;;;;;;42.67;15.45;;;8.10;99.90;;;;;;5014923;28;20050;-69
2022/01/04 05:50:44;;;;;;;35.20;14.23;;;8.10;99.90;;;;;;4997620;28;20141;-71
2022/01/04 05:53:10;;;;;;;35.60;15.40;;;8.10;99.90;;;;;;5015152;28;20370;-68
2022/01/04 05:55:35;;;;;;;48.13;15.30;;;8.10;99.90;;;;;;5014246;28;20050;-70
2022/01/04 05:58:01;;;;;;;34.85;15.07;;;8.00;99.90;;;;;;5014893;28;20442;-70
2022/01/04 06:00:26;;;;;;;47.97;14.75;;;8.00;99.90;;;;;;4997337;28;20037;-69
2022/01/04 06:02:52;;;;;;;43.60;13.73;;;8.00;99.90;;;;;;5016610;28;20082;-70
2022/01/04 06:05:18;;;;;;;42.75;14.10;;;8.00;99.90;;;;;;5000515;28;20092;-69
2022/01/04 06:07:43;;;;;;;42.30;14.20;;;7.90;99.90;;;;;;5018203;28;20061;-69
2022/01/04 06:10:11;;;;;;;45.78;15.15;;;7.90;99.90;;;;;;5018735;28;20443;-70
2022/01/04 06:15:11;;;;;;;36.28;15.73;;;8.00;99.90;;;;;;5018471;28;20054;-69
2022/01/04 06:17:42;;;;;;;31.73;14.35;;;8.00;99.90;;;;;;5001141;28;20073;-70
2022/01/04 06:20:13;;;;;;;43.75;15.93;;;8.00;99.90;;;;;;5000974;28;20069;-69
2022/01/04 06:22:39;;;;;;;39.70;15.73;;;8.00;99.90;;;;;;5018405;28;20124;-67
2022/01/04 06:25:08;;;;;;;46.45;14.57;;;8.00;99.90;;;;;;5000984;28;20461;-68
2022/01/04 06:27:34;;;;;;;37.53;15.15;;;8.00;99.90;;;;;;5018064;28;20054;-69
2022/01/04 06:30:00;;;;;;;40.83;15.68;;;8.00;99.90;;;;;;5018091;28;20129;-68
2022/01/04 06:32:26;;;;;;;40.55;15.00;;;8.00;99.90;;;;;;5017589;28;20433;-71
2022/01/04 06:34:52;;;;;;;44.17;15.82;;;8.10;99.90;;;;;;4999813;28;20050;-69
2022/01/04 06:37:18;;;;;;;40.92;16.13;;;8.00;99.90;;;;;;4998422;28;20052;-69
2022/01/04 06:39:44;;;;;;;37.70;14.90;;;8.00;99.90;;;;;;5012916;28;20041;-69
2022/01/04 06:42:11;;;;;;;35.58;16.42;;;8.00;99.90;;;;;;5018482;28;20111;-67
2022/01/04 06:44:37;;;;;;;34.08;15.27;;;8.00;99.90;;;;;;5000230;28;20054;-68
2022/01/04 06:47:03;;;;;;;37.10;15.57;;;8.00;99.90;;;;;;5017884;28;20132;-69
2022/01/04 06:49:29;;;;;;;37.40;15.95;;;8.00;99.90;;;;;;5018178;28;20046;-70
2022/01/04 06:51:55;;;;;;;41.50;16.27;;;8.00;99.90;;;;;;5017871;28;20046;-68
2022/01/04 06:54:21;;;;;;;38.38;16.08;;;8.00;99.90;;;;;;5000513;28;20482;-70
2022/01/04 06:56:48;;;;;;;40.13;16.25;;;8.00;99.90;;;;;;5017571;28;20132;-69
2022/01/04 06:59:15;;;;;;;39.17;16.33;;;8.00;99.90;;;;;;5000140;28;20128;-69
2022/01/04 07:01:41;;;;;;;41.55;17.08;;;8.00;99.90;;;;;;5017523;28;20046;-69
2022/01/04 07:04:07;;;;;;;40.40;16.45;;;8.00;99.90;;;;;;5000243;28;20045;-69
2022/01/04 07:06:33;;;;;;;34.80;15.63;;;8.00;99.90;;;;;;5016925;28;20068;-69
2022/01/04 07:09:00;;;;;;;40.17;16.23;;;8.00;99.90;;;;;;5016986;28;20135;-69
2022/01/04 07:11:25;;;;;;;37.42;15.32;;;8.00;99.90;;;;;;5017350;28;20065;-69
2022/01/04 07:13:51;;;;;;;44.30;16.27;;;8.00;99.90;;;;;;4998953;28;20462;-69
2022/01/04 07:16:17;;;;;;;49.50;16.10;;;8.00;99.90;;;;;;4983737;28;20484;-70
2022/01/04 07:18:48;;;;;;;34.65;15.18;;;8.00;99.90;;;;;;5017350;28;20042;-68
2022/01/04 07:21:15;;;;;;;34.63;14.68;;;8.00;99.90;;;;;;4999341;28;20058;-67
2022/01/04 07:23:41;;;;;;;39.38;13.70;;;8.00;99.90;;;;;;5000648;28;20156;-69
2022/01/04 07:26:11;;;;;;;29.63;13.43;;;8.00;99.90;;;;;;5000228;28;20066;-70
2022/01/04 07:28:40;;;;;;;37.67;12.95;;;8.00;99.90;;;;;;5017141;28;20053;-70
2022/01/04 07:31:06;;;;;;;26.52;12.75;;;7.90;99.90;;;;;;4999997;28;20062;-67
2022/01/04 07:33:31;;;;;;;30.85;12.57;;;8.00;99.90;;;;;;5017135;28;20365;-68
2022/01/04 07:35:57;;;;;;;33.03;12.00;;;7.90;99.90;;;;;;5016766;28;20077;-68
2022/01/04 07:38:22;;;;;;;37.47;12.95;;;7.90;99.90;;;;;;5016341;28;20358;-67
2022/01/04 07:40:48;;;;;;;33.28;13.23;;;7.90;99.90;;;;;;5004782;28;20518;-68
2022/01/04 07:43:14;;;;;;;30.45;13.38;;;7.90;99.90;;;;;;4979839;28;20530;-69
2022/01/04 07:45:40;;;;;;;36.70;13.63;;;7.90;99.90;;;;;;4980000;28;20043;-69
2022/01/04 07:48:10;;;;;;;29.70;13.60;;;7.90;99.90;;;;;;4997196;28;20050;-69
2022/01/04 07:50:39;;;;;;;40.15;14.60;;;7.90;99.90;;;;;;4979942;28;20100;-69
2022/01/04 07:53:06;;;;;;;37.05;14.07;;;7.90;99.90;;;;;;4996821;28;20057;-69
2022/01/04 07:55:32;;;;;;;34.03;13.68;;;7.90;99.90;;;;;;4963573;28;20146;-68
2022/01/04 07:57:58;;;;;;;32.67;14.05;;;7.80;99.90;;;;;;4996992;28;20458;-69
2022/01/04 08:00:25;;;;;;;34.35;14.65;;;7.80;99.90;;;;;;4979535;28;20053;-71
2022/01/04 08:02:51;;;;;;;29.50;15.05;;;7.80;99.90;;;;;;4997004;28;20463;-70
2022/01/04 08:05:17;;;;;;;36.72;15.65;;;7.80;99.90;;;;;;5003052;28;20108;-71
2022/01/04 08:07:43;;;;;;;37.42;16.98;;;7.90;99.90;;;;;;5015738;28;20049;-67
2022/01/04 08:10:10;;;;;;;37.53;16.20;;;7.90;99.90;;;;;;5016090;28;20385;-69
2022/01/04 08:12:35;;;;;;;42.20;17.88;;;7.90;99.90;;;;;;5005971;28;20390;-70
2022/01/04 08:15:03;;;;;;;44.33;17.77;;;7.90;99.90;;;;;;4962602;28;20054;-69
2022/01/04 08:17:30;;;;;;;51.70;18.13;;;8.10;99.90;;;;;;4978513;28;20397;-70
2022/01/04 08:19:55;;;;;;;29.13;11.73;;;7.90;99.90;;;;;;4995525;28;20124;-71
2022/01/04 08:22:21;;;;;;;20.00;9.40;;;7.90;99.90;;;;;;4978536;28;20471;-69
2022/01/04 08:24:46;;;;;;;15.23;6.85;;;7.80;99.90;;;;;;4978303;28;20046;-68
2022/01/04 08:27:12;;;;;;;17.42;6.32;;;7.80;99.90;;;;;;4995707;28;20428;-70
2022/01/04 08:29:38;;;;;;;14.18;5.30;;;7.70;99.90;;;;;;4995422;28;20382;-70
2022/01/04 08:32:03;;;;;;;11.90;3.53;;;7.60;99.90;;;;;;4978414;28;20114;-69
2022/01/04 08:34:29;;;;;;;16.27;3.40;;;7.60;99.90;;;;;;4995440;28;20050;-69
2022/01/04 08:36:56;;;;;;;8.30;3.08;;;7.50;99.90;;;;;;4977083;28;20287;-70
2022/01/04 08:39:26;;;;;;;8.35;3.00;;;7.50;99.90;;;;;;4978472;28;20454;-70
2022/01/04 08:41:54;;;;;;;13.88;2.97;;;7.50;99.90;;;;;;4995515;28;20046;-69
2022/01/04 08:44:22;;;;;;;13.30;2.90;;;7.50;99.90;;;;;;4995330;28;20047;-69
2022/01/04 08:46:47;;;;;;;9.70;2.92;;;7.50;99.90;;;;;;4995296;28;20050;-71
2022/01/04 08:49:13;;;;;;;9.93;3.10;;;7.40;99.90;;;;;;4978451;28;20129;-70
2022/01/04 08:51:39;;;;;;;9.98;2.95;;;7.40;99.90;;;;;;4977945;28;20053;-69
2022/01/04 08:54:05;;;;;;;12.23;3.60;;;7.40;99.90;;;;;;4995325;28;20046;-69
2022/01/04 08:56:32;;;;;;;8.85;2.92;;;7.40;99.90;;;;;;4995107;28;20108;-70
2022/01/04 08:58:59;;;;;;;9.10;3.25;;;7.40;99.90;;;;;;4995309;28;20434;-71
2022/01/04 09:01:24;;;;;;;11.00;3.35;;;7.40;99.90;;;;;;4995537;28;20060;-68
2022/01/04 09:03:50;;;;;;;11.40;3.45;;;7.30;99.90;;;;;;4995153;28;20133;-71
2022/01/04 09:06:16;;;;;;;13.23;4.28;;;7.30;99.90;;;;;;4977464;28;20050;-68
2022/01/04 09:08:42;;;;;;;9.73;3.33;;;7.30;99.90;;;;;;4995129;28;20378;-71
2022/01/04 09:11:09;;;;;;;14.45;3.78;;;7.30;99.90;;;;;;4978027;28;20402;-69
2022/01/04 09:13:39;;;;;;;12.70;3.53;;;7.30;99.90;;;;;;4977876;28;20046;-70
2022/01/04 09:18:46;;;;;;;11.80;3.78;;;7.30;99.90;;;;;;4980076;28;20043;-70
2022/01/04 09:21:21;;;;;;;12.18;3.92;;;7.30;99.90;;;;;;4958278;28;20054;-70
2022/01/04 09:23:48;;;;;;;14.85;3.95;;;7.30;99.90;;;;;;4958422;28;20054;-68
2022/01/04 09:26:17;;;;;;;16.42;4.00;;;7.30;99.90;;;;;;4975401;28;20440;-73
2022/01/04 09:28:44;;;;;;;9.65;2.83;;;7.40;99.90;;;;;;4975269;28;20051;-69
2022/01/04 09:31:10;;;;;;;14.63;3.03;;;7.50;99.90;;;;;;4974624;28;20434;-70
2022/01/04 09:33:36;;;;;;;8.43;2.20;;;7.40;99.90;;;;;;4975679;28;20120;-68
2022/01/04 09:36:03;;;;;;;6.65;2.00;;;7.40;99.90;;;;;;4990055;28;20058;-72
2022/01/04 09:38:29;;;;;;;6.47;1.80;;;7.40;99.90;;;;;;4997925;28;20177;-71
2022/01/04 09:40:55;;;;;;;5.90;2.10;;;7.40;99.90;;;;;;4998187;28;20120;-70
2022/01/04 09:43:23;;;;;;;8.00;2.10;;;7.40;99.90;;;;;;4998734;28;20061;-70
2022/01/04 09:45:49;;;;;;;8.13;2.10;;;7.40;99.90;;;;;;4998814;28;20054;-69
2022/01/04 09:48:15;;;;;;;7.18;1.88;;;7.40;99.90;;;;;;4997930;28;20039;-71
2022/01/04 09:50:42;;;;;;;7.30;2.00;;;7.40;99.90;;;;;;4998850;28;20122;-69
2022/01/04 09:53:12;;;;;;;4.97;1.95;;;7.40;99.90;;;;;;4998565;28;20050;-68
2022/01/04 09:55:39;;;;;;;6.82;1.85;;;7.40;99.90;;;;;;4998204;28;20042;-72
2022/01/04 09:58:05;;;;;;;11.23;1.77;;;7.40;99.90;;;;;;4998553;28;20133;-69
2022/01/04 10:00:31;;;;;;;9.10;1.90;;;7.40;99.90;;;;;;4998199;28;20439;-69
2022/01/04 10:03:16;;;;;;;7.50;1.52;;;7.40;99.90;;;;;;4997809;28;20078;-69
2022/01/04 10:05:43;;;;;;;6.75;1.70;;;7.40;99.90;;;;;;4997233;28;20125;-69
2022/01/04 10:08:10;;;;;;;7.25;1.77;;;7.30;99.90;;;;;;4997530;28;20462;-69
2022/01/04 10:10:38;;;;;;;8.23;1.70;;;7.30;99.90;;;;;;4998308;28;20108;-71
2022/01/04 10:13:08;;;;;;;6.43;2.13;;;7.30;99.90;;;;;;4998124;28;20042;-70
2022/01/04 10:15:47;;;;;;;9.63;2.50;;;7.30;99.90;;;;;;4998402;28;20046;-68
2022/01/04 10:18:13;;;;;;;6.25;1.88;;;7.20;99.90;;;;;;4998117;28;20053;-70
2022/01/04 10:20:45;;;;;;;11.23;2.75;;;7.30;99.90;;;;;;5004707;28;20057;-70
2022/01/04 10:23:17;;;;;;;8.93;3.30;;;7.30;99.90;;;;;;4997143;28;20145;-69
2022/01/04 10:25:45;;;;;;;7.22;1.80;;;7.20;99.90;;;;;;4994603;28;20090;-70
2022/01/04 10:28:11;;;;;;;8.73;1.52;;;7.10;99.90;;;;;;5001179;28;20108;-70
2022/01/04 10:30:44;;;;;;;4.32;1.42;;;7.00;99.90;;;;;;5018202;28;20104;-69
2022/01/04 10:33:20;;;;;;;7.72;1.48;;;7.00;99.90;;;;;;5017988;28;20053;-69
2022/01/04 10:35:48;;;;;;;7.03;1.60;;;7.00;99.90;;;;;;5018185;28;20339;-70
2022/01/04 10:38:32;;;;;;;5.72;1.67;;;7.00;99.90;;;;;;5018277;28;20362;-69
2022/01/04 10:41:03;;;;;;;6.88;1.40;;;6.90;99.90;;;;;;5000700;28;20053;-69
2022/01/04 10:43:39;;;;;;;5.70;1.70;;;6.80;99.90;;;;;;5017788;28;20045;-70
2022/01/04 10:46:06;;;;;;;5.18;1.40;;;6.80;99.90;;;;;;5017701;28;20419;-69
2022/01/04 10:48:36;;;;;;;8.65;1.95;;;6.70;99.90;;;;;;5018079;28;20413;-68
2022/01/04 10:51:10;;;;;;;6.15;1.60;;;6.60;99.90;;;;;;5017806;28;20133;-70
2022/01/04 10:53:41;;;;;;;7.85;1.45;;;6.50;99.90;;;;;;5000515;28;20485;-70
2022/01/04 10:56:10;;;;;;;7.10;1.30;;;6.40;99.90;;;;;;5017748;28;20093;-69
2022/01/04 10:58:45;;;;;;;4.97;1.70;;;6.40;99.90;;;;;;5017587;28;20092;-69
2022/01/04 11:01:13;;;;;;;7.03;1.83;;;6.30;99.90;;;;;;5017853;28;20130;-70
2022/01/04 11:03:52;;;;;;;5.85;1.40;;;6.30;99.90;;;;;;5017539;28;20050;-69
2022/01/04 11:06:28;;;;;;;5.65;1.80;;;6.30;99.90;;;;;;5017111;28;20504;-70
2022/01/04 11:08:54;;;;;;;4.03;1.13;;;6.30;99.90;;;;;;5017286;28;20129;-70
2022/01/04 11:11:20;;;;;;;6.32;1.60;;;6.30;99.90;;;;;;5017354;28;20053;-70
2022/01/04 11:13:48;;;;;;;4.15;1.30;;;6.30;99.90;;;;;;5017707;28;20056;-70
2022/01/04 11:16:14;;;;;;;6.53;1.30;;;6.30;99.90;;;;;;5000076;28;20050;-69
2022/01/04 11:18:41;;;;;;;6.95;1.60;;;6.40;99.90;;;;;;5016860;28;20046;-69
2022/01/04 11:21:11;;;;;;;3.55;1.33;;;6.40;99.90;;;;;;5017071;28;20057;-71
2022/01/04 11:23:39;;;;;;;8.00;2.05;;;6.40;99.90;;;;;;5016924;28;20041;-70
2022/01/04 11:26:05;;;;;;;5.60;1.90;;;6.40;99.90;;;;;;5017351;28;20046;-70
2022/01/04 11:28:32;;;;;;;5.15;1.23;;;6.50;99.90;;;;;;5016980;28;20053;-70
2022/01/04 11:31:00;;;;;;;6.68;1.83;;;6.50;99.90;;;;;;5017407;28;20060;-68
2022/01/04 11:33:43;;;;;;;8.80;2.20;;;6.50;99.90;;;;;;5017061;28;20188;-71
2022/01/04 11:36:11;;;;;;;4.63;1.30;;;6.50;99.90;;;;;;5003849;28;20486;-70
2022/01/04 11:38:37;;;;;;;4.57;1.42;;;6.40;99.90;;;;;;4997619;28;20054;-70
2022/01/04 11:41:04;;;;;;;4.35;1.58;;;6.40;99.90;;;;;;4997332;28;20112;-70
2022/01/04 11:43:35;;;;;;;2.65;1.30;;;6.30;99.90;;;;;;4996282;28;20042;-68
2022/01/04 11:46:02;;;;;;;2.55;1.38;;;6.30;99.90;;;;;;4997066;28;20084;-70
2022/01/04 11:48:37;;;;;;;3.65;1.10;;;6.30;99.90;;;;;;4996068;28;20121;-70
2022/01/04 11:51:05;;;;;;;4.72;1.20;;;6.20;99.90;;;;;;4996480;28;20485;-67
2022/01/04 11:53:35;;;;;;;2.88;1.02;;;6.10;99.90;;;;;;4996333;28;20050;-68
2022/01/04 11:56:06;;;;;;;4.18;1.20;;;6.00;99.90;;;;;;4997720;28;20039;-70
2022/01/04 11:58:45;;;;;;;6.50;1.13;;;5.90;99.90;;;;;;4997045;28;20047;-70
2022/01/04 12:01:14;;;;;;;3.08;1.27;;;5.80;99.90;;;;;;4996206;28;20061;-69
2022/01/04 12:03:48;;;;;;;4.05;1.40;;;5.80;99.90;;;;;;4996813;28;20061;-68
2022/01/04 12:06:16;;;;;;;4.30;1.17;;;5.80;99.90;;;;;;5009241;28;20384;-69
2022/01/04 12:08:50;;;;;;;6.93;1.52;;;5.80;99.90;;;;;;4999007;28;20084;-70
2022/01/04 12:11:25;;;;;;;7.47;1.30;;;5.80;99.90;;;;;;5016117;28;20081;-70
2022/01/04 12:13:50;;;;;;;6.15;1.58;;;5.90;99.90;;;;;;5015796;28;20049;-67
2022/01/04 12:16:33;;;;;;;5.82;1.40;;;5.90;99.90;;;;;;5016442;28;20061;-69
2022/01/04 12:19:00;;;;;;;8.07;1.33;;;6.00;99.90;;;;;;5016173;28;20056;-70
2022/01/04 12:21:29;;;;;;;5.82;1.50;;;6.10;99.90;;;;;;5015507;28;20148;-70
2022/01/04 12:23:56;;;;;;;6.68;1.13;;;6.20;99.90;;;;;;4998810;28;20049;-70
2022/01/04 12:26:24;;;;;;;5.60;1.30;;;6.20;99.90;;;;;;5015797;28;20049;-70
2022/01/04 12:28:56;;;;;;;10.85;1.10;;;6.50;99.90;;;;;;5017578;28;20060;-69
2022/01/04 12:31:24;;;;;;;4.90;1.30;;;6.40;99.90;;;;;;4999195;28;20092;-69
2022/01/04 12:33:56;;;;;;;9.85;1.95;;;6.40;99.90;;;;;;5012111;28;20465;-69
2022/01/04 12:36:29;;;;;;;6.43;1.20;;;6.40;99.90;;;;;;5011762;28;20383;-71
2022/01/04 12:39:00;;;;;;;7.75;1.27;;;6.50;99.90;;;;;;4988392;28;20108;-68
2022/01/04 12:41:26;;;;;;;6.38;1.90;;;6.60;99.90;;;;;;4995487;28;20050;-69
2022/01/04 12:43:53;;;;;;;9.73;1.63;;;6.60;99.90;;;;;;4978526;28;20134;-69
2022/01/04 12:46:29;;;;;;;8.23;1.30;;;6.50;99.90;;;;;;4995111;28;20046;-69
2022/01/04 12:49:01;;;;;;;8.05;1.25;;;6.50;99.90;;;;;;5011549;28;20066;-70
2022/01/04 12:51:40;;;;;;;11.27;2.08;;;6.50;99.90;;;;;;5011025;28;20066;-70
2022/01/04 12:54:06;;;;;;;3.67;1.17;;;6.50;99.90;;;;;;4995505;28;20370;-69
2022/01/04 12:56:32;;;;;;;6.43;1.50;;;6.50;99.90;;;;;;4978859;28;20054;-69